createdAt,value
2019-05-06T00:00:13.931Z,997.27
2019-05-06T00:01:14.828Z,997.27
2019-05-06T00:02:13.762Z,997.22
2019-05-06T00:03:13.891Z,997.21
2019-05-06T00:04:14.013Z,997.18
2019-05-06T00:05:14.317Z,997.21
2019-05-06T00:06:14.424Z,997.21
2019-05-06T00:07:13.801Z,997.19
2019-05-06T00:08:14.401Z,997.20
2019-05-06T00:09:14.583Z,997.17
2019-05-06T00:10:13.459Z,997.19
2019-05-06T00:11:14.242Z,997.17
2019-05-06T00:12:14.363Z,997.16
2019-05-06T00:13:14.021Z,997.17
2019-05-06T00:14:14.109Z,997.20
2019-05-06T00:15:14.414Z,997.20
2019-05-06T00:16:14.213Z,997.20
2019-05-06T00:17:14.449Z,997.18
2019-05-06T00:18:13.828Z,997.17
2019-05-06T00:19:13.890Z,997.17
2019-05-06T00:20:14.597Z,997.19
2019-05-06T00:21:14.622Z,997.20
2019-05-06T00:22:14.070Z,997.22
2019-05-06T00:23:14.104Z,997.21
2019-05-06T00:24:14.392Z,997.21
2019-05-06T00:25:14.072Z,997.22
2019-05-06T00:26:13.667Z,997.25
2019-05-06T00:27:13.994Z,997.23
2019-05-06T00:28:13.624Z,997.22
2019-05-06T00:29:14.002Z,997.22
2019-05-06T00:30:11.970Z,997.23
2019-05-06T00:31:14.007Z,997.25
2019-05-06T00:32:11.916Z,997.25
2019-05-06T00:33:13.578Z,997.25
2019-05-06T00:34:13.727Z,997.27
2019-05-06T00:35:11.842Z,997.27
2019-05-06T00:36:14.022Z,997.26
2019-05-06T00:37:11.802Z,997.28
2019-05-06T00:38:13.457Z,997.28
2019-05-06T00:39:11.746Z,997.25
2019-05-06T00:40:13.987Z,997.28
2019-05-06T00:41:11.699Z,997.27
2019-05-06T00:42:11.680Z,997.26
2019-05-06T00:43:11.651Z,997.27
2019-05-06T00:44:11.636Z,997.28
2019-05-06T00:45:13.515Z,997.29
2019-05-06T00:46:13.763Z,997.30
2019-05-06T00:47:13.471Z,997.33
2019-05-06T00:48:11.531Z,997.35
2019-05-06T00:49:11.509Z,997.34
2019-05-06T00:50:11.483Z,997.31
2019-05-06T00:51:13.484Z,997.33
2019-05-06T00:52:13.556Z,997.34
2019-05-06T00:53:11.409Z,997.38
2019-05-06T00:54:11.387Z,997.39
2019-05-06T00:55:13.570Z,997.41
2019-05-06T00:56:11.335Z,997.40
2019-05-06T00:57:11.315Z,997.43
2019-05-06T00:58:11.293Z,997.38
2019-05-06T00:59:11.270Z,997.42
2019-05-06T01:00:13.456Z,997.42
2019-05-06T01:01:24.120Z,997.39
2019-05-06T01:02:11.204Z,997.37
2019-05-06T01:03:11.172Z,997.37
2019-05-06T01:04:11.152Z,997.41
2019-05-06T01:05:11.125Z,997.38
2019-05-06T01:06:11.103Z,997.36
2019-05-06T01:07:11.083Z,997.38
2019-05-06T01:08:11.051Z,997.41
2019-05-06T01:09:11.037Z,997.35
2019-05-06T01:10:11.007Z,997.42
2019-05-06T01:11:10.992Z,997.42
2019-05-06T01:12:10.958Z,997.37
2019-05-06T01:13:10.939Z,997.37
2019-05-06T01:14:10.916Z,997.39
2019-05-06T01:15:10.901Z,997.42
2019-05-06T01:16:10.862Z,997.43
2019-05-06T01:17:10.840Z,997.40
2019-05-06T01:18:10.823Z,997.41
2019-05-06T01:19:10.791Z,997.43
2019-05-06T01:20:10.769Z,997.50
2019-05-06T01:21:10.746Z,997.42
2019-05-06T01:22:10.720Z,997.45
2019-05-06T01:23:10.701Z,997.46
2019-05-06T01:24:10.672Z,997.44
2019-05-06T01:25:10.650Z,997.42
2019-05-06T01:26:10.628Z,997.46
2019-05-06T01:27:10.611Z,997.47
2019-05-06T01:28:10.579Z,997.46
2019-05-06T01:29:10.557Z,997.42
2019-05-06T01:30:10.542Z,997.44
2019-05-06T01:31:10.506Z,997.43
2019-05-06T01:32:10.490Z,997.42
2019-05-06T01:33:10.460Z,997.44
2019-05-06T01:34:10.435Z,997.48
2019-05-06T01:35:10.410Z,997.46
2019-05-06T01:36:10.400Z,997.47
2019-05-06T01:37:10.387Z,997.44
2019-05-06T01:38:10.344Z,997.47
2019-05-06T01:39:10.317Z,997.51
2019-05-06T01:40:10.301Z,997.49
2019-05-06T01:41:10.269Z,997.50
2019-05-06T01:42:10.246Z,997.47
2019-05-06T01:43:10.223Z,997.51
2019-05-06T01:44:10.198Z,997.51
2019-05-06T01:45:10.176Z,997.52
2019-05-06T01:46:10.161Z,997.55
2019-05-06T01:47:10.126Z,997.54
2019-05-06T01:48:10.104Z,997.52
2019-05-06T01:49:10.088Z,997.55
2019-05-06T01:50:10.065Z,997.54
2019-05-06T01:51:10.038Z,997.56
2019-05-06T01:52:10.008Z,997.55
2019-05-06T01:53:09.989Z,997.50
2019-05-06T01:54:09.969Z,997.53
2019-05-06T01:55:09.937Z,997.53
2019-05-06T01:56:09.916Z,997.53
2019-05-06T01:57:09.897Z,997.54
2019-05-06T01:58:09.871Z,997.56
2019-05-06T01:59:09.845Z,997.57
2019-05-06T02:00:09.822Z,997.52
2019-05-06T02:01:09.801Z,997.53
2019-05-06T02:02:09.771Z,997.56
2019-05-06T02:03:09.756Z,997.56
2019-05-06T02:04:09.724Z,997.52
2019-05-06T02:05:09.702Z,997.58
2019-05-06T02:06:09.687Z,997.54
2019-05-06T02:07:09.657Z,997.56
2019-05-06T02:08:09.631Z,997.59
2019-05-06T02:09:09.606Z,997.60
2019-05-06T02:10:09.591Z,997.57
2019-05-06T02:11:09.558Z,997.55
2019-05-06T02:12:09.542Z,997.57
2019-05-06T02:13:09.520Z,997.55
2019-05-06T02:14:09.567Z,997.60
2019-05-06T02:15:09.481Z,997.55
2019-05-06T02:16:09.443Z,997.56
2019-05-06T02:17:09.427Z,997.54
2019-05-06T02:18:09.401Z,997.56
2019-05-06T02:19:09.372Z,997.56
2019-05-06T02:20:09.347Z,997.53
2019-05-06T02:21:09.325Z,997.55
2019-05-06T02:22:09.303Z,997.58
2019-05-06T02:23:09.275Z,997.58
2019-05-06T02:24:09.256Z,997.57
2019-05-06T02:25:09.237Z,997.62
2019-05-06T02:26:09.211Z,997.61
2019-05-06T02:27:09.198Z,997.59
2019-05-06T02:28:09.163Z,997.60
2019-05-06T02:29:09.140Z,997.63
2019-05-06T02:30:09.109Z,997.61
2019-05-06T02:31:09.087Z,997.61
2019-05-06T02:32:24.378Z,997.59
2019-05-06T02:33:09.040Z,997.57
2019-05-06T02:34:09.017Z,997.61
2019-05-06T02:35:08.991Z,997.64
2019-05-06T02:36:08.975Z,997.65
2019-05-06T02:37:08.969Z,997.65
2019-05-06T02:38:08.930Z,997.61
2019-05-06T02:39:08.898Z,997.66
2019-05-06T02:40:08.876Z,997.66
2019-05-06T02:41:08.888Z,997.67
2019-05-06T02:42:08.833Z,997.65
2019-05-06T02:43:08.818Z,997.68
2019-05-06T02:44:10.955Z,997.63
2019-05-06T02:45:08.759Z,997.64
2019-05-06T02:46:08.741Z,997.64
2019-05-06T02:47:08.718Z,997.67
2019-05-06T02:48:08.691Z,997.63
2019-05-06T02:49:08.666Z,997.65
2019-05-06T02:50:08.637Z,997.67
2019-05-06T02:51:08.618Z,997.63
2019-05-06T02:52:08.588Z,997.62
2019-05-06T02:53:08.571Z,997.65
2019-05-06T02:54:08.593Z,997.68
2019-05-06T02:55:08.517Z,997.66
2019-05-06T02:56:08.495Z,997.66
2019-05-06T02:57:08.469Z,997.64
2019-05-06T02:58:08.487Z,997.71
2019-05-06T02:59:08.424Z,997.66
2019-05-06T03:00:08.399Z,997.69
2019-05-06T03:01:08.380Z,997.62
2019-05-06T03:02:08.355Z,997.63
2019-05-06T03:03:08.330Z,997.61
2019-05-06T03:04:08.302Z,997.64
2019-05-06T03:05:08.299Z,997.61
2019-05-06T03:06:08.255Z,997.63
2019-05-06T03:07:08.235Z,997.59
2019-05-06T03:08:08.219Z,997.56
2019-05-06T03:09:08.190Z,997.60
2019-05-06T03:10:08.164Z,997.58
2019-05-06T03:11:08.143Z,997.56
2019-05-06T03:12:08.113Z,997.61
2019-05-06T03:13:08.096Z,997.59
2019-05-06T03:14:08.074Z,997.63
2019-05-06T03:15:08.107Z,997.63
2019-05-06T03:16:08.022Z,997.63
2019-05-06T03:17:07.998Z,997.65
2019-05-06T03:18:07.975Z,997.65
2019-05-06T03:19:07.944Z,997.63
2019-05-06T03:20:07.920Z,997.63
2019-05-06T03:21:07.896Z,997.65
2019-05-06T03:22:07.906Z,997.63
2019-05-06T03:23:07.856Z,997.61
2019-05-06T03:24:07.846Z,997.61
2019-05-06T03:25:07.828Z,997.61
2019-05-06T03:26:07.782Z,997.58
2019-05-06T03:27:07.754Z,997.62
2019-05-06T03:28:07.734Z,997.58
2019-05-06T03:29:07.706Z,997.59
2019-05-06T03:30:07.690Z,997.59
2019-05-06T03:31:08.291Z,997.61
2019-05-06T03:32:08.006Z,997.62
2019-05-06T03:33:36.237Z,997.60
2019-05-06T03:34:35.895Z,997.60
2019-05-06T03:35:23.049Z,997.59
2019-05-06T03:36:23.651Z,997.54
2019-05-06T03:37:08.643Z,997.64
2019-05-06T03:38:07.488Z,997.63
2019-05-06T03:39:07.470Z,997.62
2019-05-06T03:40:07.443Z,997.61
2019-05-06T03:41:07.416Z,997.61
2019-05-06T03:42:07.404Z,997.67
2019-05-06T03:43:07.367Z,997.62
2019-05-06T03:44:07.341Z,997.63
2019-05-06T03:45:07.315Z,997.62
2019-05-06T03:46:07.302Z,997.65
2019-05-06T03:47:07.268Z,997.62
2019-05-06T03:48:07.243Z,997.63
2019-05-06T03:49:07.229Z,997.66
2019-05-06T03:50:07.198Z,997.62
2019-05-06T03:51:07.177Z,997.67
2019-05-06T03:52:07.179Z,997.70
2019-05-06T03:53:07.124Z,997.66
2019-05-06T03:54:07.105Z,997.70
2019-05-06T03:55:07.081Z,997.69
2019-05-06T03:56:07.047Z,997.72
2019-05-06T03:57:07.028Z,997.78
2019-05-06T03:58:07.005Z,997.76
2019-05-06T03:59:06.977Z,997.73
2019-05-06T04:00:06.986Z,997.77
2019-05-06T04:01:06.933Z,997.73
2019-05-06T04:02:06.913Z,997.76
2019-05-06T04:03:06.879Z,997.78
2019-05-06T04:04:06.853Z,997.74
2019-05-06T04:05:06.834Z,997.80
2019-05-06T04:06:06.809Z,997.81
2019-05-06T04:07:06.779Z,997.79
2019-05-06T04:08:06.755Z,997.84
2019-05-06T04:09:06.736Z,997.81
2019-05-06T04:10:06.734Z,997.81
2019-05-06T04:11:06.699Z,997.84
2019-05-06T04:12:06.665Z,997.84
2019-05-06T04:13:06.634Z,997.88
2019-05-06T04:14:06.613Z,997.91
2019-05-06T04:15:06.587Z,997.89
2019-05-06T04:16:06.587Z,997.90
2019-05-06T04:17:06.547Z,997.93
2019-05-06T04:18:06.513Z,997.96
2019-05-06T04:19:06.492Z,998.00
2019-05-06T04:20:06.463Z,998.00
2019-05-06T04:21:08.933Z,997.99
2019-05-06T04:22:06.415Z,998.00
2019-05-06T04:23:06.870Z,997.99
2019-05-06T04:24:06.383Z,998.02
2019-05-06T04:25:06.342Z,998.00
2019-05-06T04:26:06.317Z,998.01
2019-05-06T04:27:06.297Z,997.97
2019-05-06T04:28:06.273Z,998.02
2019-05-06T04:29:06.256Z,998.03
2019-05-06T04:30:06.228Z,998.04
2019-05-06T04:31:06.197Z,998.05
2019-05-06T04:32:06.177Z,997.97
2019-05-06T04:33:06.196Z,998.03
2019-05-06T04:34:13.914Z,998.08
2019-05-06T04:35:06.117Z,998.05
2019-05-06T04:36:06.073Z,998.11
2019-05-06T04:37:06.048Z,998.11
2019-05-06T04:38:06.022Z,998.12
2019-05-06T04:39:06.005Z,998.11
2019-05-06T04:40:05.978Z,998.13
2019-05-06T04:41:05.957Z,998.14
2019-05-06T04:42:09.363Z,998.17
2019-05-06T04:43:05.908Z,998.18
2019-05-06T04:44:05.925Z,998.20
2019-05-06T04:45:05.851Z,998.20
2019-05-06T04:46:05.835Z,998.20
2019-05-06T04:47:05.811Z,998.22
2019-05-06T04:48:05.780Z,998.20
2019-05-06T04:49:07.004Z,998.22
2019-05-06T04:50:05.729Z,998.23
2019-05-06T04:51:05.713Z,998.24
2019-05-06T04:52:05.698Z,998.25
2019-05-06T04:53:06.023Z,998.26
2019-05-06T04:54:05.635Z,998.27
2019-05-06T04:55:05.609Z,998.26
2019-05-06T04:56:05.593Z,998.26
2019-05-06T04:57:05.563Z,998.28
2019-05-06T04:58:05.547Z,998.30
2019-05-06T04:59:06.205Z,998.27
2019-05-06T05:00:05.490Z,998.27
2019-05-06T05:01:05.467Z,998.31
2019-05-06T05:02:05.448Z,998.28
2019-05-06T05:03:05.447Z,998.29
2019-05-06T05:04:21.696Z,998.31
2019-05-06T05:05:05.374Z,998.31
2019-05-06T05:06:05.986Z,998.33
2019-05-06T05:07:05.321Z,998.32
2019-05-06T05:08:05.303Z,998.34
2019-05-06T05:09:05.291Z,998.35
2019-05-06T05:10:05.248Z,998.38
2019-05-06T05:11:05.231Z,998.38
2019-05-06T05:12:05.200Z,998.40
2019-05-06T05:13:05.181Z,998.41
2019-05-06T05:14:05.159Z,998.45
2019-05-06T05:15:05.133Z,998.44
2019-05-06T05:16:05.104Z,998.42
2019-05-06T05:17:05.079Z,998.41
2019-05-06T05:18:05.064Z,998.43
2019-05-06T05:19:05.050Z,998.42
2019-05-06T05:20:05.021Z,998.50
2019-05-06T05:21:04.986Z,998.50
2019-05-06T05:22:04.976Z,998.46
2019-05-06T05:23:04.947Z,998.51
2019-05-06T05:24:04.916Z,998.48
2019-05-06T05:25:04.893Z,998.49
2019-05-06T05:26:04.866Z,998.49
2019-05-06T05:27:04.861Z,998.52
2019-05-06T05:28:04.827Z,998.50
2019-05-06T05:29:04.823Z,998.52
2019-05-06T05:30:04.799Z,998.50
2019-05-06T05:31:04.756Z,998.49
2019-05-06T05:32:04.747Z,998.49
2019-05-06T05:33:04.711Z,998.55
2019-05-06T05:34:04.682Z,998.57
2019-05-06T05:35:04.657Z,998.57
2019-05-06T05:36:04.644Z,998.60
2019-05-06T05:37:04.635Z,998.62
2019-05-06T05:38:04.588Z,998.62
2019-05-06T05:39:04.561Z,998.62
2019-05-06T05:40:04.533Z,998.66
2019-05-06T05:41:04.518Z,998.67
2019-05-06T05:42:04.509Z,998.69
2019-05-06T05:43:04.693Z,998.71
2019-05-06T05:44:04.505Z,998.72
2019-05-06T05:45:04.419Z,998.72
2019-05-06T05:46:04.401Z,998.73
2019-05-06T05:47:04.370Z,998.77
2019-05-06T05:48:04.389Z,998.79
2019-05-06T05:49:04.323Z,998.77
2019-05-06T05:50:04.307Z,998.77
2019-05-06T05:51:04.276Z,998.75
2019-05-06T05:52:04.281Z,998.78
2019-05-06T05:53:04.234Z,998.76
2019-05-06T05:54:04.205Z,998.77
2019-05-06T05:55:04.191Z,998.72
2019-05-06T05:56:04.161Z,998.75
2019-05-06T05:57:04.141Z,998.78
2019-05-06T05:58:04.113Z,998.80
2019-05-06T05:59:04.086Z,998.79
2019-05-06T06:00:04.198Z,998.81
2019-05-06T06:01:04.286Z,998.82
2019-05-06T06:02:04.089Z,998.76
2019-05-06T06:03:06.854Z,998.77
2019-05-06T06:04:03.981Z,998.77
2019-05-06T06:05:03.951Z,998.80
2019-05-06T06:06:03.926Z,998.80
2019-05-06T06:07:03.904Z,998.83
2019-05-06T06:08:03.879Z,998.84
2019-05-06T06:09:03.853Z,998.87
2019-05-06T06:10:03.831Z,998.87
2019-05-06T06:11:04.362Z,998.84
2019-05-06T06:12:03.786Z,998.82
2019-05-06T06:13:03.760Z,998.80
2019-05-06T06:14:03.741Z,998.83
2019-05-06T06:15:03.715Z,998.86
2019-05-06T06:16:03.722Z,998.87
2019-05-06T06:17:03.670Z,998.85
2019-05-06T06:18:05.964Z,998.87
2019-05-06T06:19:05.970Z,998.86
2019-05-06T06:20:03.609Z,998.84
2019-05-06T06:21:16.995Z,998.85
2019-05-06T06:22:03.574Z,998.84
2019-05-06T06:23:03.595Z,998.82
2019-05-06T06:24:03.521Z,998.82
2019-05-06T06:25:05.025Z,998.81
2019-05-06T06:26:05.965Z,998.82
2019-05-06T06:27:03.451Z,998.84
2019-05-06T06:28:06.980Z,998.86
2019-05-06T06:29:04.479Z,998.86
2019-05-06T06:30:03.385Z,998.86
2019-05-06T06:31:03.365Z,998.86
2019-05-06T06:32:03.341Z,998.91
2019-05-06T06:33:03.311Z,998.93
2019-05-06T06:34:03.298Z,998.92
2019-05-06T06:35:10.807Z,998.98
2019-05-06T06:36:03.248Z,999.00
2019-05-06T06:37:03.228Z,998.99
2019-05-06T06:38:03.219Z,999.03
2019-05-06T06:39:03.186Z,999.02
2019-05-06T06:40:03.170Z,999.03
2019-05-06T06:41:03.141Z,999.02
2019-05-06T06:42:03.115Z,998.99
2019-05-06T06:43:03.099Z,999.03
2019-05-06T06:44:03.095Z,998.96
2019-05-06T06:45:03.660Z,998.97
2019-05-06T06:46:08.989Z,998.94
2019-05-06T06:47:04.975Z,998.96
2019-05-06T06:48:06.971Z,998.92
2019-05-06T06:49:06.470Z,998.92
2019-05-06T06:50:07.481Z,998.90
2019-05-06T06:51:07.983Z,998.95
2019-05-06T06:52:03.116Z,998.94
2019-05-06T06:53:03.138Z,998.95
2019-05-06T06:54:02.855Z,998.97
2019-05-06T06:55:02.826Z,999.01
2019-05-06T06:56:02.810Z,998.98
2019-05-06T06:57:08.704Z,998.99
2019-05-06T06:58:02.823Z,999.02
2019-05-06T06:59:02.750Z,999.02
2019-05-06T07:00:04.074Z,999.01
2019-05-06T07:01:03.267Z,998.97
2019-05-06T07:02:02.821Z,999.01
2019-05-06T07:03:02.840Z,998.99
2019-05-06T07:04:10.038Z,998.99
2019-05-06T07:05:02.612Z,999.01
2019-05-06T07:06:02.591Z,999.02
2019-05-06T07:07:03.058Z,999.03
2019-05-06T07:08:02.552Z,999.03
2019-05-06T07:09:02.771Z,999.00
2019-05-06T07:10:02.770Z,998.98
2019-05-06T07:11:02.488Z,999.00
2019-05-06T07:12:03.451Z,998.93
2019-05-06T07:13:03.046Z,998.92
2019-05-06T07:14:02.677Z,998.96
2019-05-06T07:15:02.614Z,998.99
2019-05-06T07:16:02.907Z,999.01
2019-05-06T07:17:02.548Z,999.02
2019-05-06T07:18:02.585Z,999.07
2019-05-06T07:19:03.123Z,999.01
2019-05-06T07:20:02.913Z,999.04
2019-05-06T07:21:04.917Z,999.03
2019-05-06T07:22:02.872Z,999.08
2019-05-06T07:23:02.240Z,999.03
2019-05-06T07:24:02.287Z,999.08
2019-05-06T07:25:03.712Z,999.07
2019-05-06T07:26:03.041Z,999.06
2019-05-06T07:27:05.994Z,999.11
2019-05-06T07:28:02.916Z,999.11
2019-05-06T07:29:03.945Z,999.12
2019-05-06T07:30:02.990Z,999.16
2019-05-06T07:31:17.203Z,999.14
2019-05-06T07:32:02.682Z,999.15
2019-05-06T07:33:03.602Z,999.19
2019-05-06T07:34:02.623Z,999.18
2019-05-06T07:35:02.377Z,999.14
2019-05-06T07:36:02.265Z,999.15
2019-05-06T07:37:03.495Z,999.16
2019-05-06T07:38:02.438Z,999.16
2019-05-06T07:39:04.153Z,999.17
2019-05-06T07:40:03.008Z,999.19
2019-05-06T07:41:04.544Z,999.18
2019-05-06T07:42:02.446Z,999.20
2019-05-06T07:43:02.375Z,999.22
2019-05-06T07:44:02.234Z,999.24
2019-05-06T07:45:06.468Z,999.23
2019-05-06T07:46:02.558Z,999.21
2019-05-06T07:47:03.570Z,999.18
2019-05-06T07:48:03.547Z,999.20
2019-05-06T07:49:03.245Z,999.23
2019-05-06T07:50:02.570Z,999.24
2019-05-06T07:51:03.055Z,999.23
2019-05-06T07:52:02.859Z,999.21
2019-05-06T07:53:02.381Z,999.21
2019-05-06T07:54:02.821Z,999.20
2019-05-06T07:55:02.523Z,999.20
2019-05-06T07:56:03.681Z,999.22
2019-05-06T07:57:02.380Z,999.25
2019-05-06T07:58:02.940Z,999.24
2019-05-06T07:59:03.248Z,999.21
2019-05-06T08:00:03.439Z,999.26
2019-05-06T08:01:02.618Z,999.29
2019-05-06T08:02:02.251Z,999.25
2019-05-06T08:03:02.600Z,999.27
2019-05-06T08:04:02.529Z,999.23
2019-05-06T08:05:02.630Z,999.24
2019-05-06T08:06:02.640Z,999.25
2019-05-06T08:07:03.184Z,999.27
2019-05-06T08:08:03.621Z,999.21
2019-05-06T08:09:03.169Z,999.24
2019-05-06T08:10:02.159Z,999.27
2019-05-06T08:11:02.723Z,999.28
2019-05-06T08:12:02.827Z,999.25
2019-05-06T08:13:02.760Z,999.28
2019-05-06T08:14:02.183Z,999.29
2019-05-06T08:15:04.962Z,999.34
2019-05-06T08:16:02.266Z,999.35
2019-05-06T08:17:02.281Z,999.25
2019-05-06T08:18:03.370Z,999.33
2019-05-06T08:19:02.741Z,999.36
2019-05-06T08:20:02.481Z,999.36
2019-05-06T08:21:02.467Z,999.40
2019-05-06T08:22:02.761Z,999.37
2019-05-06T08:23:02.133Z,999.36
2019-05-06T08:24:02.753Z,999.33
2019-05-06T08:25:03.486Z,999.33
2019-05-06T08:26:10.046Z,999.31
2019-05-06T08:27:02.840Z,999.32
2019-05-06T08:28:02.275Z,999.32
2019-05-06T08:29:02.794Z,999.27
2019-05-06T08:30:02.438Z,999.26
2019-05-06T08:31:02.366Z,999.22
2019-05-06T08:32:02.960Z,999.24
2019-05-06T08:33:02.262Z,999.17
2019-05-06T08:34:02.658Z,999.22
2019-05-06T08:35:03.189Z,999.18
2019-05-06T08:36:10.583Z,999.21
2019-05-06T08:37:02.441Z,999.20
2019-05-06T08:38:02.401Z,999.21
2019-05-06T08:39:02.777Z,999.21
2019-05-06T08:40:03.151Z,999.26
2019-05-06T08:41:02.708Z,999.24
2019-05-06T08:42:02.624Z,999.25
2019-05-06T08:43:02.251Z,999.23
2019-05-06T08:44:02.685Z,999.21
2019-05-06T08:45:02.196Z,999.17
2019-05-06T08:46:03.051Z,999.19
2019-05-06T08:47:02.546Z,999.24
2019-05-06T08:48:02.423Z,999.17
2019-05-06T08:49:02.842Z,999.20
2019-05-06T08:50:02.445Z,999.18
2019-05-06T08:51:02.695Z,999.14
2019-05-06T08:52:02.429Z,999.20
2019-05-06T08:53:00.749Z,999.20
2019-05-06T08:54:03.067Z,999.16
2019-05-06T08:55:02.904Z,999.15
2019-05-06T08:56:01.964Z,999.16
2019-05-06T08:57:02.551Z,999.17
2019-05-06T08:58:02.849Z,999.17
2019-05-06T08:59:03.013Z,999.21
2019-05-06T09:00:02.846Z,999.16
2019-05-06T09:01:02.807Z,999.20
2019-05-06T09:02:02.964Z,999.15
2019-05-06T09:03:00.575Z,999.20
2019-05-06T09:04:09.430Z,999.20
2019-05-06T09:05:02.740Z,999.21
2019-05-06T09:06:03.018Z,999.19
2019-05-06T09:07:02.787Z,999.21
2019-05-06T09:08:00.490Z,999.18
2019-05-06T09:09:02.424Z,999.15
2019-05-06T09:10:02.550Z,999.14
2019-05-06T09:11:02.939Z,999.15
2019-05-06T09:12:02.477Z,999.13
2019-05-06T09:13:01.998Z,999.13
2019-05-06T09:14:03.128Z,999.16
2019-05-06T09:15:00.385Z,999.15
2019-05-06T09:16:02.420Z,999.14
2019-05-06T09:17:02.598Z,999.15
2019-05-06T09:18:02.800Z,999.14
2019-05-06T09:19:04.346Z,999.13
2019-05-06T09:20:02.498Z,999.11
2019-05-06T09:21:02.814Z,999.14
2019-05-06T09:22:02.373Z,999.16
2019-05-06T09:23:04.208Z,999.10
2019-05-06T09:24:02.254Z,999.10
2019-05-06T09:25:02.275Z,999.11
2019-05-06T09:26:02.503Z,999.09
2019-05-06T09:27:00.193Z,999.09
2019-05-06T09:28:02.507Z,999.06
2019-05-06T09:29:02.277Z,999.10
2019-05-06T09:30:02.823Z,999.09
2019-05-06T09:31:02.187Z,999.08
2019-05-06T09:32:01.811Z,999.16
2019-05-06T09:33:00.101Z,999.08
2019-05-06T09:34:02.532Z,999.08
2019-05-06T09:35:02.695Z,999.08
2019-05-06T09:36:00.079Z,999.08
2019-05-06T09:37:02.972Z,999.13
2019-05-06T09:38:02.054Z,999.10
2019-05-06T09:39:01.781Z,999.08
2019-05-06T09:40:02.521Z,999.08
2019-05-06T09:40:59.989Z,999.12
2019-05-06T09:42:02.159Z,999.10
2019-05-06T09:42:59.936Z,999.12
2019-05-06T09:43:59.925Z,999.10
2019-05-06T09:45:02.036Z,999.08
2019-05-06T09:46:02.151Z,999.12
2019-05-06T09:47:01.853Z,999.08
2019-05-06T09:47:59.871Z,999.04
2019-05-06T09:48:59.844Z,999.08
2019-05-06T09:50:02.518Z,999.06
2019-05-06T09:50:59.797Z,999.08
2019-05-06T09:52:02.325Z,999.10
2019-05-06T09:53:01.927Z,999.08
2019-05-06T09:54:01.554Z,999.11
2019-05-06T09:54:59.737Z,999.09
2019-05-06T09:55:59.719Z,999.06
2019-05-06T09:56:59.698Z,999.07
2019-05-06T09:57:59.682Z,999.06
2019-05-06T09:59:02.063Z,999.06
2019-05-06T10:00:03.601Z,999.03
2019-05-06T10:00:59.650Z,999.04
2019-05-06T10:01:59.640Z,999.05
2019-05-06T10:02:59.594Z,999.00
2019-05-06T10:03:59.584Z,999.02
2019-05-06T10:04:59.573Z,999.01
2019-05-06T10:05:59.554Z,999.00
2019-05-06T10:07:00.056Z,999.02
2019-05-06T10:07:59.528Z,999.07
2019-05-06T10:08:59.503Z,999.11
2019-05-06T10:09:59.491Z,999.08
2019-05-06T10:11:00.051Z,999.10
2019-05-06T10:11:59.448Z,999.15
2019-05-06T10:12:59.441Z,999.11
2019-05-06T10:13:59.439Z,999.12
2019-05-06T10:14:59.406Z,999.11
2019-05-06T10:15:59.390Z,999.10
2019-05-06T10:16:59.375Z,999.08
2019-05-06T10:17:59.365Z,999.10
2019-05-06T10:18:59.344Z,999.06
2019-05-06T10:19:59.331Z,999.07
2019-05-06T10:20:59.339Z,999.04
2019-05-06T10:21:59.303Z,999.05
2019-05-06T10:22:59.296Z,999.06
2019-05-06T10:23:59.274Z,999.05
2019-05-06T10:24:59.262Z,999.02
2019-05-06T10:25:59.255Z,999.07
2019-05-06T10:26:59.233Z,999.09
2019-05-06T10:27:59.223Z,999.01
2019-05-06T10:28:59.242Z,999.02
2019-05-06T10:29:59.188Z,999.03
2019-05-06T10:30:59.274Z,999.02
2019-05-06T10:31:59.165Z,999.02
2019-05-06T10:32:59.143Z,999.00
2019-05-06T10:33:59.133Z,999.04
2019-05-06T10:34:59.116Z,999.02
2019-05-06T10:35:59.106Z,999.02
2019-05-06T10:37:11.679Z,999.00
2019-05-06T10:37:59.073Z,999.04
2019-05-06T10:38:59.058Z,999.07
2019-05-06T10:39:59.048Z,999.06
2019-05-06T10:41:03.908Z,999.05
2019-05-06T10:41:59.026Z,999.09
2019-05-06T10:42:59.006Z,999.08
2019-05-06T10:43:58.984Z,999.07
2019-05-06T10:44:58.975Z,999.10
2019-05-06T10:46:01.078Z,999.03
2019-05-06T10:46:58.944Z,999.07
2019-05-06T10:47:58.935Z,999.07
2019-05-06T10:48:58.929Z,999.06
2019-05-06T10:49:58.916Z,999.08
2019-05-06T10:50:58.900Z,999.05
2019-05-06T10:51:58.882Z,999.16
2019-05-06T10:52:58.868Z,999.14
2019-05-06T10:53:58.868Z,999.16
2019-05-06T10:54:58.859Z,999.15
2019-05-06T10:55:58.852Z,999.12
2019-05-06T10:56:58.836Z,999.14
2019-05-06T10:57:58.828Z,999.13
2019-05-06T10:58:58.823Z,999.08
2019-05-06T10:59:58.825Z,999.10
2019-05-06T11:00:58.799Z,999.11
2019-05-06T11:01:58.790Z,999.05
2019-05-06T11:02:58.779Z,999.03
2019-05-06T11:03:58.772Z,999.06
2019-05-06T11:04:58.757Z,999.06
2019-05-06T11:05:58.747Z,998.99
2019-05-06T11:06:58.733Z,999.03
2019-05-06T11:07:58.731Z,999.02
2019-05-06T11:08:58.716Z,999.01
2019-05-06T11:09:58.702Z,998.99
2019-05-06T11:11:13.996Z,998.97
2019-05-06T11:11:58.689Z,998.99
2019-05-06T11:12:58.674Z,998.98
2019-05-06T11:13:58.679Z,998.95
2019-05-06T11:14:58.643Z,998.98
2019-05-06T11:15:58.632Z,998.94
2019-05-06T11:16:58.618Z,998.97
2019-05-06T11:17:58.606Z,998.95
2019-05-06T11:18:58.597Z,998.96
2019-05-06T11:19:58.587Z,998.95
2019-05-06T11:20:58.574Z,998.93
2019-05-06T11:21:58.564Z,998.95
2019-05-06T11:22:58.552Z,998.91
2019-05-06T11:23:58.538Z,998.83
2019-05-06T11:24:58.522Z,998.85
2019-05-06T11:25:58.525Z,998.85
2019-05-06T11:26:58.506Z,998.84
2019-05-06T11:27:58.490Z,998.86
2019-05-06T11:28:58.490Z,998.83
2019-05-06T11:29:58.471Z,998.82
2019-05-06T11:30:58.458Z,998.82
2019-05-06T11:31:58.445Z,998.77
2019-05-06T11:32:58.481Z,998.83
2019-05-06T11:33:58.413Z,998.85
2019-05-06T11:34:58.412Z,998.84
2019-05-06T11:35:58.394Z,998.84
2019-05-06T11:36:58.381Z,998.83
2019-05-06T11:37:58.372Z,998.81
2019-05-06T11:38:58.361Z,998.83
2019-05-06T11:39:58.340Z,998.78
2019-05-06T11:40:58.407Z,998.75
2019-05-06T11:42:15.357Z,998.74
2019-05-06T11:42:58.326Z,998.74
2019-05-06T11:43:58.288Z,998.67
2019-05-06T11:44:58.282Z,998.67
2019-05-06T11:45:58.270Z,998.69
2019-05-06T11:46:58.240Z,998.67
2019-05-06T11:47:58.238Z,998.68
2019-05-06T11:48:58.223Z,998.70
2019-05-06T11:49:58.200Z,998.72
2019-05-06T11:50:58.177Z,998.71
2019-05-06T11:51:58.170Z,998.68
2019-05-06T11:52:58.180Z,998.66
2019-05-06T11:53:58.145Z,998.66
2019-05-06T11:54:58.117Z,998.71
2019-05-06T11:55:58.105Z,998.77
2019-05-06T11:56:58.682Z,998.73
2019-05-06T11:57:58.063Z,998.73
2019-05-06T11:58:58.059Z,998.68
2019-05-06T11:59:58.027Z,998.75
2019-05-06T12:00:58.015Z,998.75
2019-05-06T12:01:57.996Z,998.71
2019-05-06T12:02:57.983Z,998.74
2019-05-06T12:03:57.963Z,998.70
2019-05-06T12:04:57.956Z,998.74
2019-05-06T12:05:57.933Z,998.76
2019-05-06T12:07:10.432Z,998.77
2019-05-06T12:08:04.578Z,998.77
2019-05-06T12:08:57.913Z,998.79
2019-05-06T12:09:57.872Z,998.75
2019-05-06T12:10:57.856Z,998.75
2019-05-06T12:11:57.862Z,998.76
2019-05-06T12:12:57.814Z,998.74
2019-05-06T12:13:57.795Z,998.77
2019-05-06T12:14:57.780Z,998.75
2019-05-06T12:15:57.763Z,998.77
2019-05-06T12:16:57.745Z,998.78
2019-05-06T12:17:57.735Z,998.81
2019-05-06T12:18:59.803Z,998.72
2019-05-06T12:19:57.693Z,998.73
2019-05-06T12:21:08.147Z,998.75
2019-05-06T12:21:57.673Z,998.78
2019-05-06T12:22:57.645Z,998.78
2019-05-06T12:23:57.638Z,998.73
2019-05-06T12:24:57.623Z,998.86
2019-05-06T12:25:57.668Z,998.83
2019-05-06T12:26:57.587Z,998.84
2019-05-06T12:27:57.582Z,998.80